sensor_id;sensor_type;location;lat;lon;timestamp;P1;durP1;ratioP1;P2;durP2;ratioP2
49876;SDS011;35771;48.978;9.294;2022-10-13T06:39:53;26.70;;;12.70;;
49876;SDS011;35771;48.978;9.294;2022-10-13T06:42:20;23.02;;;12.50;;
49876;SDS011;35771;48.978;9.294;2022-10-13T06:44:46;30.80;;;13.45;;
49876;SDS011;35771;48.978;9.294;2022-10-13T06:47:13;25.25;;;13.52;;
49876;SDS011;35771;48.978;9.294;2022-10-13T06:49:39;29.27;;;14.30;;
49876;SDS011;35771;48.978;9.294;2022-10-13T06:52:06;27.25;;;12.48;;
49876;SDS011;35771;48.978;9.294;2022-10-13T06:54:33;26.88;;;13.15;;
49876;SDS011;35771;48.978;9.294;2022-10-13T06:57:03;25.95;;;13.07;;
49876;SDS011;35771;48.978;9.294;2022-10-13T06:59:30;25.60;;;12.95;;
49876;SDS011;35771;48.978;9.294;2022-10-13T07:01:57;20.58;;;11.32;;
49876;SDS011;35771;48.978;9.294;2022-10-13T07:04:23;27.02;;;13.07;;
49876;SDS011;35771;48.978;9.294;2022-10-13T07:06:51;20.67;;;11.30;;
49876;SDS011;35771;48.978;9.294;2022-10-13T07:09:18;23.70;;;12.40;;
49876;SDS011;35771;48.978;9.294;2022-10-13T07:11:45;30.98;;;11.50;;
49876;SDS011;35771;48.978;9.294;2022-10-13T07:14:13;19.67;;;11.13;;
49876;SDS011;35771;48.978;9.294;2022-10-13T07:16:39;23.02;;;11.00;;
49876;SDS011;35771;48.978;9.294;2022-10-13T07:19:06;27.05;;;10.90;;
49876;SDS011;35771;48.978;9.294;2022-10-13T07:21:33;24.40;;;11.13;;
49876;SDS011;35771;48.978;9.294;2022-10-13T07:24:00;19.17;;;10.15;;
49876;SDS011;35771;48.978;9.294;2022-10-13T07:26:28;23.95;;;11.23;;
49876;SDS011;35771;48.978;9.294;2022-10-13T07:28:56;19.40;;;10.50;;
49876;SDS011;35771;48.978;9.294;2022-10-13T07:31:24;26.30;;;11.07;;
49876;SDS011;35771;48.978;9.294;2022-10-13T07:33:51;23.75;;;10.57;;
49876;SDS011;35771;48.978;9.294;2022-10-13T07:36:18;19.67;;;10.50;;
49876;SDS011;35771;48.978;9.294;2022-10-13T07:38:45;18.30;;;10.90;;
49876;SDS011;35771;48.978;9.294;2022-10-13T07:41:11;21.52;;;11.13;;
49876;SDS011;35771;48.978;9.294;2022-10-13T07:43:38;28.23;;;11.02;;
49876;SDS011;35771;48.978;9.294;2022-10-13T07:46:05;27.25;;;9.95;;
49876;SDS011;35771;48.978;9.294;2022-10-13T07:48:34;19.52;;;10.65;;
49876;SDS011;35771;48.978;9.294;2022-10-13T07:51:04;16.75;;;10.32;;
49876;SDS011;35771;48.978;9.294;2022-10-13T07:55:59;24.20;;;10.80;;
49876;SDS011;35771;48.978;9.294;2022-10-13T07:58:26;20.83;;;9.43;;
49876;SDS011;35771;48.978;9.294;2022-10-13T08:00:56;24.30;;;11.43;;
49876;SDS011;35771;48.978;9.294;2022-10-13T08:03:22;19.15;;;10.45;;
49876;SDS011;35771;48.978;9.294;2022-10-13T08:05:50;17.35;;;9.77;;
49876;SDS011;35771;48.978;9.294;2022-10-13T08:08:17;21.67;;;9.98;;
49876;SDS011;35771;48.978;9.294;2022-10-13T08:10:44;24.33;;;11.50;;
49876;SDS011;35771;48.978;9.294;2022-10-13T08:13:10;20.17;;;10.60;;
49876;SDS011;35771;48.978;9.294;2022-10-13T08:15:38;17.50;;;9.55;;
49876;SDS011;35771;48.978;9.294;2022-10-13T08:18:05;23.20;;;9.95;;
49876;SDS011;35771;48.978;9.294;2022-10-13T08:20:31;21.30;;;9.63;;
49876;SDS011;35771;48.978;9.294;2022-10-13T08:23:00;20.50;;;9.93;;
49876;SDS011;35771;48.978;9.294;2022-10-13T08:25:27;21.15;;;11.00;;
49876;SDS011;35771;48.978;9.294;2022-10-13T08:27:53;24.38;;;10.90;;
49876;SDS011;35771;48.978;9.294;2022-10-13T08:30:20;21.05;;;9.43;;
49876;SDS011;35771;48.978;9.294;2022-10-13T08:32:47;19.10;;;8.95;;
49876;SDS011;35771;48.978;9.294;2022-10-13T08:35:14;22.17;;;10.38;;
49876;SDS011;35771;48.978;9.294;2022-10-13T08:37:40;18.80;;;9.20;;
49876;SDS011;35771;48.978;9.294;2022-10-13T08:40:11;18.40;;;9.38;;
49876;SDS011;35771;48.978;9.294;2022-10-13T08:42:42;25.25;;;9.13;;
49876;SDS011;35771;48.978;9.294;2022-10-13T08:45:09;23.92;;;8.48;;
49876;SDS011;35771;48.978;9.294;2022-10-13T08:47:44;19.17;;;8.65;;
49876;SDS011;35771;48.978;9.294;2022-10-13T08:50:14;19.48;;;8.63;;
49876;SDS011;35771;48.978;9.294;2022-10-13T08:52:46;17.42;;;8.70;;
49876;SDS011;35771;48.978;9.294;2022-10-13T08:55:26;20.60;;;7.63;;
49876;SDS011;35771;48.978;9.294;2022-10-13T08:57:55;15.70;;;9.00;;
49876;SDS011;35771;48.978;9.294;2022-10-13T09:00:22;23.23;;;7.80;;
49876;SDS011;35771;48.978;9.294;2022-10-13T09:02:50;21.10;;;8.63;;
49876;SDS011;35771;48.978;9.294;2022-10-13T09:05:18;22.65;;;8.75;;
49876;SDS011;35771;48.978;9.294;2022-10-13T09:07:53;17.55;;;8.20;;
49876;SDS011;35771;48.978;9.294;2022-10-13T09:10:22;19.92;;;8.20;;
49876;SDS011;35771;48.978;9.294;2022-10-13T09:12:50;22.30;;;8.68;;
49876;SDS011;35771;48.978;9.294;2022-10-13T09:15:17;22.80;;;9.77;;
49876;SDS011;35771;48.978;9.294;2022-10-13T09:17:44;26.25;;;8.50;;
49876;SDS011;35771;48.978;9.294;2022-10-13T09:20:35;19.75;;;8.27;;
49876;SDS011;35771;48.978;9.294;2022-10-13T09:23:03;14.38;;;6.97;;
49876;SDS011;35771;48.978;9.294;2022-10-13T09:25:37;31.45;;;9.25;;
49876;SDS011;35771;48.978;9.294;2022-10-13T09:28:12;14.93;;;7.88;;
49876;SDS011;35771;48.978;9.294;2022-10-13T09:30:42;17.15;;;6.80;;
49876;SDS011;35771;48.978;9.294;2022-10-13T09:33:21;14.82;;;8.05;;
49876;SDS011;35771;48.978;9.294;2022-10-13T09:36:04;14.25;;;7.20;;
49876;SDS011;35771;48.978;9.294;2022-10-13T09:38:38;13.98;;;7.35;;
49876;SDS011;35771;48.978;9.294;2022-10-13T09:41:11;13.77;;;7.03;;
49876;SDS011;35771;48.978;9.294;2022-10-13T09:43:42;13.05;;;6.97;;
49876;SDS011;35771;48.978;9.294;2022-10-13T09:46:24;11.05;;;6.35;;
49876;SDS011;35771;48.978;9.294;2022-10-13T09:48:54;15.32;;;6.75;;
49876;SDS011;35771;48.978;9.294;2022-10-13T09:51:29;13.32;;;6.90;;
49876;SDS011;35771;48.978;9.294;2022-10-13T09:54:03;14.88;;;7.35;;
49876;SDS011;35771;48.978;9.294;2022-10-13T09:56:33;20.10;;;7.07;;
49876;SDS011;35771;48.978;9.294;2022-10-13T09:59:12;10.00;;;5.97;;
49876;SDS011;35771;48.978;9.294;2022-10-13T10:01:46;15.73;;;6.75;;
49876;SDS011;35771;48.978;9.294;2022-10-13T10:04:15;15.02;;;5.97;;
49876;SDS011;35771;48.978;9.294;2022-10-13T10:06:47;13.77;;;6.20;;
49876;SDS011;35771;48.978;9.294;2022-10-13T10:09:21;10.88;;;5.70;;
49876;SDS011;35771;48.978;9.294;2022-10-13T10:11:58;11.93;;;6.00;;
49876;SDS011;35771;48.978;9.294;2022-10-13T10:14:29;13.30;;;6.22;;
49876;SDS011;35771;48.978;9.294;2022-10-13T10:16:59;15.48;;;6.93;;
49876;SDS011;35771;48.978;9.294;2022-10-13T10:19:36;21.33;;;7.80;;
49876;SDS011;35771;48.978;9.294;2022-10-13T10:22:14;23.17;;;7.13;;
49876;SDS011;35771;48.978;9.294;2022-10-13T10:24:50;12.88;;;5.80;;
49876;SDS011;35771;48.978;9.294;2022-10-13T10:27:27;11.40;;;6.60;;
49876;SDS011;35771;48.978;9.294;2022-10-13T10:30:01;15.18;;;5.80;;
49876;SDS011;35771;48.978;9.294;2022-10-13T10:32:32;15.30;;;7.35;;
49876;SDS011;35771;48.978;9.294;2022-10-13T10:35:09;26.70;;;8.30;;
49876;SDS011;35771;48.978;9.294;2022-10-13T10:37:43;12.07;;;5.75;;
49876;SDS011;35771;48.978;9.294;2022-10-13T10:40:26;13.30;;;5.95;;
49876;SDS011;35771;48.978;9.294;2022-10-13T10:43:12;19.85;;;5.97;;
49876;SDS011;35771;48.978;9.294;2022-10-13T10:45:52;18.73;;;6.93;;
49876;SDS011;35771;48.978;9.294;2022-10-13T10:48:23;11.80;;;5.25;;
49876;SDS011;35771;48.978;9.294;2022-10-13T10:50:51;12.90;;;6.00;;
49876;SDS011;35771;48.978;9.294;2022-10-13T10:53:20;10.25;;;5.55;;
49876;SDS011;35771;48.978;9.294;2022-10-13T10:55:55;13.93;;;5.72;;
49876;SDS011;35771;48.978;9.294;2022-10-13T10:58:30;10.50;;;5.55;;
49876;SDS011;35771;48.978;9.294;2022-10-13T11:01:12;14.45;;;5.53;;
49876;SDS011;35771;48.978;9.294;2022-10-13T11:03:48;12.15;;;6.43;;
49876;SDS011;35771;48.978;9.294;2022-10-13T11:06:24;10.23;;;5.28;;
49876;SDS011;35771;48.978;9.294;2022-10-13T11:08:57;14.13;;;6.95;;
49876;SDS011;35771;48.978;9.294;2022-10-13T11:11:32;11.80;;;5.43;;
49876;SDS011;35771;48.978;9.294;2022-10-13T11:14:21;16.55;;;5.20;;
49876;SDS011;35771;48.978;9.294;2022-10-13T11:19:43;13.88;;;5.07;;
49876;SDS011;35771;48.978;9.294;2022-10-13T11:22:14;9.95;;;4.93;;
49876;SDS011;35771;48.978;9.294;2022-10-13T11:24:43;10.77;;;6.03;;
49876;SDS011;35771;48.978;9.294;2022-10-13T11:27:22;10.43;;;5.28;;
49876;SDS011;35771;48.978;9.294;2022-10-13T11:29:52;17.58;;;5.40;;
49876;SDS011;35771;48.978;9.294;2022-10-13T11:35:21;14.03;;;5.57;;
49876;SDS011;35771;48.978;9.294;2022-10-13T11:37:52;16.60;;;6.63;;
49876;SDS011;35771;48.978;9.294;2022-10-13T11:40:31;15.40;;;5.85;;
49876;SDS011;35771;48.978;9.294;2022-10-13T11:43:05;10.13;;;5.35;;
49876;SDS011;35771;48.978;9.294;2022-10-13T11:45:47;12.52;;;5.28;;
49876;SDS011;35771;48.978;9.294;2022-10-13T11:51:34;12.50;;;5.05;;
49876;SDS011;35771;48.978;9.294;2022-10-13T11:54:13;11.38;;;5.22;;
49876;SDS011;35771;48.978;9.294;2022-10-13T11:56:47;10.70;;;5.15;;
49876;SDS011;35771;48.978;9.294;2022-10-13T11:59:19;14.50;;;5.30;;
49876;SDS011;35771;48.978;9.294;2022-10-13T12:01:51;12.32;;;4.65;;
49876;SDS011;35771;48.978;9.294;2022-10-13T12:04:20;11.52;;;5.20;;
49876;SDS011;35771;48.978;9.294;2022-10-13T12:06:52;14.68;;;5.15;;
49876;SDS011;35771;48.978;9.294;2022-10-13T12:09:25;10.38;;;5.47;;
49876;SDS011;35771;48.978;9.294;2022-10-13T12:11:57;16.83;;;5.35;;
49876;SDS011;35771;48.978;9.294;2022-10-13T12:14:28;13.00;;;5.40;;
49876;SDS011;35771;48.978;9.294;2022-10-13T12:16:59;9.80;;;5.07;;
49876;SDS011;35771;48.978;9.294;2022-10-13T12:19:29;10.48;;;4.88;;
49876;SDS011;35771;48.978;9.294;2022-10-13T12:21:57;8.25;;;4.75;;
49876;SDS011;35771;48.978;9.294;2022-10-13T12:24:26;9.65;;;4.78;;
49876;SDS011;35771;48.978;9.294;2022-10-13T12:26:54;11.80;;;4.82;;
49876;SDS011;35771;48.978;9.294;2022-10-13T12:30:49;11.35;;;4.80;;
49876;SDS011;35771;48.978;9.294;2022-10-13T12:32:50;13.27;;;5.82;;
49876;SDS011;35771;48.978;9.294;2022-10-13T12:35:19;9.80;;;4.57;;
49876;SDS011;35771;48.978;9.294;2022-10-13T12:37:48;10.20;;;5.45;;
49876;SDS011;35771;48.978;9.294;2022-10-13T12:40:15;11.00;;;4.65;;
49876;SDS011;35771;48.978;9.294;2022-10-13T12:42:43;13.52;;;5.20;;
49876;SDS011;35771;48.978;9.294;2022-10-13T12:45:13;12.15;;;5.47;;
49876;SDS011;35771;48.978;9.294;2022-10-13T12:47:48;9.60;;;5.88;;
49876;SDS011;35771;48.978;9.294;2022-10-13T12:50:36;13.45;;;5.47;;
49876;SDS011;35771;48.978;9.294;2022-10-13T12:53:05;10.45;;;5.07;;
49876;SDS011;35771;48.978;9.294;2022-10-13T12:55:44;13.90;;;5.38;;
49876;SDS011;35771;48.978;9.294;2022-10-13T12:58:15;20.40;;;7.03;;
49876;SDS011;35771;48.978;9.294;2022-10-13T13:00:53;14.10;;;5.57;;
49876;SDS011;35771;48.978;9.294;2022-10-13T13:03:24;11.70;;;4.75;;
49876;SDS011;35771;48.978;9.294;2022-10-13T13:06:05;13.95;;;4.70;;
49876;SDS011;35771;48.978;9.294;2022-10-13T13:12:02;9.10;;;4.57;;
49876;SDS011;35771;48.978;9.294;2022-10-13T13:14:45;8.88;;;4.22;;
49876;SDS011;35771;48.978;9.294;2022-10-13T13:17:13;13.05;;;4.45;;
49876;SDS011;35771;48.978;9.294;2022-10-13T13:19:49;16.48;;;6.20;;
49876;SDS011;35771;48.978;9.294;2022-10-13T13:22:16;11.10;;;4.67;;
49876;SDS011;35771;48.978;9.294;2022-10-13T13:24:43;16.63;;;4.63;;
49876;SDS011;35771;48.978;9.294;2022-10-13T13:27:13;10.73;;;5.13;;
49876;SDS011;35771;48.978;9.294;2022-10-13T13:29:46;11.63;;;4.75;;
49876;SDS011;35771;48.978;9.294;2022-10-13T13:32:14;14.38;;;5.47;;
49876;SDS011;35771;48.978;9.294;2022-10-13T13:34:42;8.52;;;4.93;;
49876;SDS011;35771;48.978;9.294;2022-10-13T13:37:14;9.60;;;4.35;;
49876;SDS011;35771;48.978;9.294;2022-10-13T13:39:47;14.75;;;5.82;;
49876;SDS011;35771;48.978;9.294;2022-10-13T13:42:14;8.73;;;4.22;;
49876;SDS011;35771;48.978;9.294;2022-10-13T13:44:41;7.97;;;4.38;;
49876;SDS011;35771;48.978;9.294;2022-10-13T13:47:13;14.15;;;4.05;;
49876;SDS011;35771;48.978;9.294;2022-10-13T13:49:42;10.23;;;4.90;;
49876;SDS011;35771;48.978;9.294;2022-10-13T13:52:09;6.38;;;4.50;;
49876;SDS011;35771;48.978;9.294;2022-10-13T13:54:37;14.35;;;4.32;;
49876;SDS011;35771;48.978;9.294;2022-10-13T13:57:03;10.57;;;4.20;;
49876;SDS011;35771;48.978;9.294;2022-10-13T13:59:30;6.97;;;4.13;;
49876;SDS011;35771;48.978;9.294;2022-10-13T14:01:56;8.50;;;4.35;;
49876;SDS011;35771;48.978;9.294;2022-10-13T14:04:23;10.43;;;4.18;;
49876;SDS011;35771;48.978;9.294;2022-10-13T14:06:49;11.05;;;4.90;;
49876;SDS011;35771;48.978;9.294;2022-10-13T14:09:16;12.05;;;5.13;;
49876;SDS011;35771;48.978;9.294;2022-10-13T14:11:44;8.38;;;4.28;;
49876;SDS011;35771;48.978;9.294;2022-10-13T14:14:11;7.32;;;3.95;;
49876;SDS011;35771;48.978;9.294;2022-10-13T14:16:38;7.82;;;3.90;;
49876;SDS011;35771;48.978;9.294;2022-10-13T14:19:05;10.80;;;4.63;;
49876;SDS011;35771;48.978;9.294;2022-10-13T14:21:32;10.93;;;4.18;;
49876;SDS011;35771;48.978;9.294;2022-10-13T14:24:00;11.63;;;4.15;;
49876;SDS011;35771;48.978;9.294;2022-10-13T14:26:26;6.38;;;3.83;;
49876;SDS011;35771;48.978;9.294;2022-10-13T14:28:55;12.98;;;4.18;;
49876;SDS011;35771;48.978;9.294;2022-10-13T14:31:21;11.23;;;4.13;;
49876;SDS011;35771;48.978;9.294;2022-10-13T14:33:48;6.93;;;3.95;;
49876;SDS011;35771;48.978;9.294;2022-10-13T14:36:14;14.60;;;4.00;;
49876;SDS011;35771;48.978;9.294;2022-10-13T14:38:41;11.48;;;4.47;;
49876;SDS011;35771;48.978;9.294;2022-10-13T14:41:07;6.05;;;4.00;;
49876;SDS011;35771;48.978;9.294;2022-10-13T14:43:34;13.10;;;4.10;;
49876;SDS011;35771;48.978;9.294;2022-10-13T14:46:02;9.15;;;4.22;;
49876;SDS011;35771;48.978;9.294;2022-10-13T14:48:30;13.63;;;4.55;;
49876;SDS011;35771;48.978;9.294;2022-10-13T14:50:57;9.75;;;4.10;;
49876;SDS011;35771;48.978;9.294;2022-10-13T14:53:24;12.18;;;4.10;;
49876;SDS011;35771;48.978;9.294;2022-10-13T14:55:52;10.10;;;4.25;;
49876;SDS011;35771;48.978;9.294;2022-10-13T14:58:18;9.95;;;4.03;;
49876;SDS011;35771;48.978;9.294;2022-10-13T15:00:45;11.23;;;4.95;;
49876;SDS011;35771;48.978;9.294;2022-10-13T15:03:13;10.10;;;4.35;;
49876;SDS011;35771;48.978;9.294;2022-10-13T15:05:39;9.20;;;4.72;;
49876;SDS011;35771;48.978;9.294;2022-10-13T15:08:06;14.10;;;4.22;;
49876;SDS011;35771;48.978;9.294;2022-10-13T15:10:33;12.43;;;3.95;;
49876;SDS011;35771;48.978;9.294;2022-10-13T15:12:59;11.15;;;4.05;;
49876;SDS011;35771;48.978;9.294;2022-10-13T15:15:26;13.20;;;4.88;;
49876;SDS011;35771;48.978;9.294;2022-10-13T15:17:53;12.65;;;4.60;;
49876;SDS011;35771;48.978;9.294;2022-10-13T15:20:21;11.43;;;4.22;;
49876;SDS011;35771;48.978;9.294;2022-10-13T15:22:47;7.15;;;3.60;;
49876;SDS011;35771;48.978;9.294;2022-10-13T15:25:14;6.25;;;3.92;;
49876;SDS011;35771;48.978;9.294;2022-10-13T15:27:40;9.93;;;5.55;;
49876;SDS011;35771;48.978;9.294;2022-10-13T15:30:07;11.38;;;4.28;;
49876;SDS011;35771;48.978;9.294;2022-10-13T15:32:35;10.43;;;4.28;;
49876;SDS011;35771;48.978;9.294;2022-10-13T15:35:01;8.00;;;4.07;;
49876;SDS011;35771;48.978;9.294;2022-10-13T15:37:31;8.13;;;4.05;;
49876;SDS011;35771;48.978;9.294;2022-10-13T15:39:58;10.60;;;3.80;;
49876;SDS011;35771;48.978;9.294;2022-10-13T15:42:24;10.52;;;4.50;;
49876;SDS011;35771;48.978;9.294;2022-10-13T15:44:51;8.48;;;4.60;;
49876;SDS011;35771;48.978;9.294;2022-10-13T15:47:17;8.95;;;4.20;;
49876;SDS011;35771;48.978;9.294;2022-10-13T15:49:44;12.10;;;5.60;;
49876;SDS011;35771;48.978;9.294;2022-10-13T15:52:10;12.02;;;5.05;;
49876;SDS011;35771;48.978;9.294;2022-10-13T15:54:38;18.92;;;4.25;;
49876;SDS011;35771;48.978;9.294;2022-10-13T15:57:05;8.88;;;3.70;;
49876;SDS011;35771;48.978;9.294;2022-10-13T15:59:31;9.55;;;4.05;;
49876;SDS011;35771;48.978;9.294;2022-10-13T16:01:58;16.23;;;4.50;;
49876;SDS011;35771;48.978;9.294;2022-10-13T16:04:24;18.02;;;4.55;;
49876;SDS011;35771;48.978;9.294;2022-10-13T16:06:51;6.50;;;4.07;;
49876;SDS011;35771;48.978;9.294;2022-10-13T16:09:17;7.70;;;4.35;;
49876;SDS011;35771;48.978;9.294;2022-10-13T16:11:45;10.52;;;5.75;;
49876;SDS011;35771;48.978;9.294;2022-10-13T16:14:12;10.38;;;4.40;;
49876;SDS011;35771;48.978;9.294;2022-10-13T16:16:38;9.18;;;3.88;;
49876;SDS011;35771;48.978;9.294;2022-10-13T16:19:05;14.70;;;4.10;;
49876;SDS011;35771;48.978;9.294;2022-10-13T16:21:32;9.75;;;3.63;;
49876;SDS011;35771;48.978;9.294;2022-10-13T16:23:59;9.82;;;4.32;;
49876;SDS011;35771;48.978;9.294;2022-10-13T16:26:25;12.52;;;4.78;;
49876;SDS011;35771;48.978;9.294;2022-10-13T16:28:54;10.27;;;3.80;;
49876;SDS011;35771;48.978;9.294;2022-10-13T16:31:22;7.80;;;4.40;;
49876;SDS011;35771;48.978;9.294;2022-10-13T16:33:49;10.05;;;4.97;;
49876;SDS011;35771;48.978;9.294;2022-10-13T16:36:16;11.48;;;5.35;;
49876;SDS011;35771;48.978;9.294;2022-10-13T16:38:44;8.13;;;4.68;;
49876;SDS011;35771;48.978;9.294;2022-10-13T16:41:12;12.30;;;4.82;;
49876;SDS011;35771;48.978;9.294;2022-10-13T16:43:40;18.88;;;5.55;;
49876;SDS011;35771;48.978;9.294;2022-10-13T16:46:09;9.90;;;4.68;;
49876;SDS011;35771;48.978;9.294;2022-10-13T16:51:05;13.23;;;4.72;;
49876;SDS011;35771;48.978;9.294;2022-10-13T16:53:33;12.07;;;5.35;;
49876;SDS011;35771;48.978;9.294;2022-10-13T16:56:00;8.82;;;4.55;;
49876;SDS011;35771;48.978;9.294;2022-10-13T16:58:28;10.07;;;4.90;;
49876;SDS011;35771;48.978;9.294;2022-10-13T17:01:00;7.78;;;4.88;;
49876;SDS011;35771;48.978;9.294;2022-10-13T17:03:28;10.93;;;4.70;;
49876;SDS011;35771;48.978;9.294;2022-10-13T17:05:55;8.23;;;4.10;;
49876;SDS011;35771;48.978;9.294;2022-10-13T17:08:22;11.85;;;5.03;;
49876;SDS011;35771;48.978;9.294;2022-10-13T17:10:48;12.70;;;4.57;;
49876;SDS011;35771;48.978;9.294;2022-10-13T17:13:15;14.23;;;5.50;;
49876;SDS011;35771;48.978;9.294;2022-10-13T17:15:47;11.00;;;5.30;;
49876;SDS011;35771;48.978;9.294;2022-10-13T17:18:14;10.15;;;4.93;;
49876;SDS011;35771;48.978;9.294;2022-10-13T17:20:48;11.77;;;4.20;;
49876;SDS011;35771;48.978;9.294;2022-10-13T17:23:15;12.80;;;4.03;;
49876;SDS011;35771;48.978;9.294;2022-10-13T17:25:42;10.00;;;4.75;;
49876;SDS011;35771;48.978;9.294;2022-10-13T17:28:08;7.80;;;4.70;;
49876;SDS011;35771;48.978;9.294;2022-10-13T17:30:35;7.78;;;5.20;;
